Time;durP1;ratioP1;P1;durP2;ratioP2;P2;SDS_P1;SDS_P2;PMS_P1;PMS_P2;Temp;Humidity;BMP_temperature;BMP_pressure;BME280_temperature;BME280_humidity;BME280_pressure;Samples;Min_cycle;Max_cycle;Signal;HPM_P1;HPM_P2
2023/10/09 00:01:44;;;;;;;8.10;1.17;;;19.00;67.80;;;;;;4997844;28;20143;-51
2023/10/09 00:04:11;;;;;;;3.95;1.48;;;19.00;67.50;;;;;;5002118;28;20022;-48
2023/10/09 00:06:37;;;;;;;6.18;1.40;;;19.00;67.80;;;;;;5000460;28;20030;-51
2023/10/09 00:09:48;;;;;;;5.53;1.80;;;19.10;67.90;;;;;;4998331;28;20026;-46
2023/10/09 00:11:58;;;;;;;2.13;1.08;;;19.10;67.90;;;;;;4998385;28;20114;-47
2023/10/09 00:14:25;;;;;;;2.97;1.20;;;19.10;67.80;;;;;;5000457;28;20033;-52
2023/10/09 00:17:01;;;;;;;2.65;1.10;;;19.10;67.70;;;;;;4996867;28;20124;-49
2023/10/09 00:19:32;;;;;;;1.20;1.05;;;19.10;67.80;;;;;;4996731;28;20089;-52
2023/10/09 00:22:04;;;;;;;4.05;1.52;;;19.10;67.90;;;;;;4997492;28;20037;-47
2023/10/09 00:24:31;;;;;;;3.88;1.30;;;19.10;67.90;;;;;;4999961;28;20053;-49
2023/10/09 00:27:11;;;;;;;4.03;1.40;;;19.10;67.90;;;;;;5016085;28;20088;-50
2023/10/09 00:29:45;;;;;;;3.38;1.67;;;19.20;67.90;;;;;;5006721;28;20113;-48
2023/10/09 00:32:27;;;;;;;1.92;1.20;;;19.10;67.70;;;;;;5003482;28;20069;-47
2023/10/09 00:34:59;;;;;;;2.80;1.30;;;19.10;67.70;;;;;;5004138;28;20733;-49
2023/10/09 00:37:25;;;;;;;1.75;1.35;;;19.10;67.70;;;;;;5001255;28;20068;-48
2023/10/09 00:39:58;;;;;;;1.33;1.17;;;19.10;67.70;;;;;;5001160;28;20029;-50
2023/10/09 00:42:29;;;;;;;0.85;0.82;;;19.10;67.70;;;;;;5000656;28;20030;-48
2023/10/09 00:44:56;;;;;;;1.75;1.15;;;19.20;67.70;;;;;;4998638;28;20125;-47
2023/10/09 00:47:22;;;;;;;1.73;0.95;;;19.10;67.70;;;;;;4995654;28;20026;-48
2023/10/09 00:49:49;;;;;;;1.70;1.13;;;19.10;67.60;;;;;;4992035;28;20042;-47
2023/10/09 00:52:23;;;;;;;0.85;0.80;;;19.10;67.70;;;;;;5000675;28;20041;-47
2023/10/09 00:54:51;;;;;;;1.95;1.10;;;19.20;67.70;;;;;;4998529;28;20042;-47
2023/10/09 00:57:24;;;;;;;1.13;0.98;;;19.20;67.80;;;;;;5000317;28;20034;-50
2023/10/09 00:59:59;;;;;;;1.27;1.05;;;19.20;67.70;;;;;;4998411;28;20033;-50
2023/10/09 01:02:35;;;;;;;2.22;0.85;;;19.20;67.70;;;;;;4998619;28;20045;-50
2023/10/09 01:05:11;;;;;;;1.40;1.23;;;19.20;67.60;;;;;;4999789;28;20495;-47
2023/10/09 01:07:44;;;;;;;1.02;0.90;;;19.20;67.60;;;;;;4997372;28;20135;-48
2023/10/09 01:10:11;;;;;;;1.27;0.82;;;19.20;67.60;;;;;;4998756;28;20030;-49
2023/10/09 01:12:43;;;;;;;2.15;1.08;;;19.20;67.70;;;;;;4983415;28;20188;-49
2023/10/09 01:15:17;;;;;;;1.17;1.08;;;19.20;67.50;;;;;;4999799;28;20438;-49
2023/10/09 01:17:45;;;;;;;1.52;0.73;;;19.20;67.50;;;;;;5001034;28;20410;-50
2023/10/09 01:20:16;;;;;;;1.77;1.27;;;19.20;67.50;;;;;;4998764;28;20392;-50
2023/10/09 01:22:43;;;;;;;0.95;0.73;;;19.20;67.50;;;;;;4997982;28;20096;-51
2023/10/09 01:25:09;;;;;;;4.68;0.90;;;19.20;67.50;;;;;;5000093;28;20044;-48
2023/10/09 01:27:40;;;;;;;1.63;1.05;;;19.20;67.60;;;;;;4999893;28;20117;-47
2023/10/09 01:30:06;;;;;;;2.63;0.90;;;19.20;67.60;;;;;;4999255;28;20033;-47
2023/10/09 01:32:34;;;;;;;2.20;1.10;;;19.20;67.60;;;;;;4998088;28;20038;-48
2023/10/09 01:35:00;;;;;;;2.13;1.00;;;19.20;67.60;;;;;;5000564;28;20465;-49
2023/10/09 01:39:52;;;;;;;3.90;1.05;;;19.30;67.70;;;;;;4999621;28;20403;-52
2023/10/09 01:42:34;;;;;;;3.22;1.02;;;19.30;67.50;;;;;;5000523;28;20030;-47
2023/10/09 01:45:09;;;;;;;7.95;1.50;;;19.30;67.70;;;;;;4999133;28;20080;-48
2023/10/09 01:47:37;;;;;;;4.05;1.30;;;19.30;68.00;;;;;;5000814;28;20084;-51
2023/10/09 01:50:05;;;;;;;3.55;1.05;;;19.30;67.90;;;;;;4995055;28;20050;-50
2023/10/09 01:52:30;;;;;;;2.03;1.20;;;19.20;68.20;;;;;;4998869;28;20554;-48
2023/10/09 01:55:03;;;;;;;4.80;1.40;;;19.30;67.80;;;;;;4999530;28;20033;-48
2023/10/09 01:57:30;;;;;;;1.83;1.05;;;19.20;67.70;;;;;;4998489;28;20733;-52
2023/10/09 01:59:57;;;;;;;1.85;1.00;;;19.20;67.70;;;;;;4998391;28;20073;-49
2023/10/09 02:02:26;;;;;;;2.13;1.50;;;19.30;67.70;;;;;;4998410;28;20175;-49
2023/10/09 02:05:10;;;;;;;2.78;0.80;;;19.20;67.70;;;;;;4998898;28;20041;-50
2023/10/09 02:07:51;;;;;;;2.67;1.00;;;19.30;67.70;;;;;;5011872;28;20041;-47
2023/10/09 02:12:59;;;;;;;1.13;0.70;;;19.30;67.80;;;;;;4993882;28;20030;-47
2023/10/09 02:15:51;;;;;;;1.25;0.93;;;19.30;67.90;;;;;;4997415;28;20419;-50
2023/10/09 02:21:12;;;;;;;1.70;1.05;;;19.30;67.90;;;;;;4993724;28;20509;-51
2023/10/09 02:26:25;;;;;;;2.63;1.17;;;19.30;67.70;;;;;;4999885;28;20061;-51
2023/10/09 02:29:04;;;;;;;1.15;1.00;;;19.30;67.70;;;;;;4996494;28;20029;-48
2023/10/09 02:31:40;;;;;;;1.73;1.10;;;19.30;67.80;;;;;;5011934;28;20041;-54
2023/10/09 02:34:06;;;;;;;2.22;1.45;;;19.20;67.90;;;;;;4997594;28;20063;-48
2023/10/09 02:36:34;;;;;;;2.03;0.98;;;19.20;67.90;;;;;;4996515;28;20045;-48
2023/10/09 02:39:00;;;;;;;6.28;1.10;;;19.20;67.80;;;;;;4998118;28;20037;-53
2023/10/09 02:41:28;;;;;;;8.68;1.30;;;19.20;67.90;;;;;;4995084;28;20026;-49
2023/10/09 02:44:01;;;;;;;2.45;1.20;;;19.30;68.00;;;;;;4997744;28;20062;-47
2023/10/09 02:46:35;;;;;;;2.35;1.17;;;19.20;67.90;;;;;;4999971;28;20030;-47
2023/10/09 02:49:06;;;;;;;1.67;1.20;;;19.20;67.90;;;;;;4998150;28;20063;-49
2023/10/09 02:51:32;;;;;;;2.10;1.10;;;19.20;67.90;;;;;;4998171;28;20030;-49
2023/10/09 02:54:18;;;;;;;3.10;1.42;;;19.20;67.90;;;;;;4997265;28;20101;-47
2023/10/09 02:56:55;;;;;;;3.45;1.70;;;19.20;67.90;;;;;;4998885;28;20059;-48
2023/10/09 02:59:21;;;;;;;4.13;1.85;;;19.20;68.10;;;;;;4997889;28;20026;-48
2023/10/09 03:01:48;;;;;;;2.85;1.40;;;19.20;67.90;;;;;;4998528;28;20022;-48
2023/10/09 03:04:14;;;;;;;3.55;1.48;;;19.20;67.80;;;;;;4996448;28;20085;-49
2023/10/09 03:06:49;;;;;;;5.13;1.52;;;19.30;67.80;;;;;;4999091;28;20114;-46
2023/10/09 03:09:26;;;;;;;4.35;1.35;;;19.30;67.70;;;;;;4999113;28;20557;-47
2023/10/09 03:12:01;;;;;;;3.75;1.30;;;19.30;67.70;;;;;;4981771;28;20731;-55
2023/10/09 03:14:28;;;;;;;4.22;1.30;;;19.30;68.40;;;;;;4996124;28;20689;-50
2023/10/09 03:16:56;;;;;;;4.47;1.63;;;19.30;67.90;;;;;;5003402;28;20080;-48
2023/10/09 03:19:22;;;;;;;2.55;1.60;;;19.30;67.60;;;;;;5002144;28;20026;-54
2023/10/09 03:21:48;;;;;;;2.40;1.50;;;19.30;67.90;;;;;;5001468;28;20092;-47
2023/10/09 03:24:13;;;;;;;4.57;1.90;;;19.30;67.70;;;;;;5017467;28;20507;-51
2023/10/09 03:26:39;;;;;;;2.33;1.38;;;19.30;67.90;;;;;;5001242;28;20037;-51
2023/10/09 03:29:06;;;;;;;2.08;1.52;;;19.20;67.80;;;;;;5002083;28;20087;-50
2023/10/09 03:31:38;;;;;;;2.38;1.63;;;19.20;67.70;;;;;;5000923;28;20033;-49
2023/10/09 03:34:04;;;;;;;2.10;1.48;;;19.30;68.00;;;;;;5012603;28;20033;-50
2023/10/09 03:36:37;;;;;;;2.90;1.70;;;19.20;67.70;;;;;;5001529;28;20112;-49
2023/10/09 03:39:17;;;;;;;8.43;2.05;;;19.30;67.90;;;;;;5013431;28;20125;-48
2023/10/09 03:41:46;;;;;;;4.93;1.83;;;19.30;67.90;;;;;;4996172;28;20434;-49
2023/10/09 03:44:18;;;;;;;5.47;2.88;;;19.20;67.80;;;;;;5013722;28;20137;-48
2023/10/09 03:46:46;;;;;;;2.90;1.58;;;19.30;68.10;;;;;;4999629;28;20025;-47
2023/10/09 03:49:13;;;;;;;3.08;1.55;;;19.30;67.90;;;;;;5000407;28;20062;-50
2023/10/09 03:51:39;;;;;;;3.35;1.77;;;19.30;67.70;;;;;;4999507;28;20033;-48
2023/10/09 03:54:08;;;;;;;3.53;2.20;;;19.30;67.70;;;;;;5001365;28;20029;-50
2023/10/09 03:56:35;;;;;;;2.45;1.80;;;19.30;67.80;;;;;;5001513;28;20404;-51
2023/10/09 03:59:05;;;;;;;2.03;1.45;;;19.30;67.70;;;;;;5000585;28;20022;-51
2023/10/09 04:01:37;;;;;;;2.38;1.63;;;19.30;67.80;;;;;;4999842;28;20026;-51
2023/10/09 04:04:06;;;;;;;2.08;1.58;;;19.30;67.70;;;;;;5000673;28;20026;-50
2023/10/09 04:06:32;;;;;;;2.08;1.48;;;19.30;67.70;;;;;;4999548;28;20026;-47
2023/10/09 04:09:26;;;;;;;2.55;1.77;;;19.30;67.60;;;;;;5001798;28;20041;-50
2023/10/09 04:14:54;;;;;;;3.08;2.10;;;19.30;67.70;;;;;;4996322;28;20161;-48
2023/10/09 04:20:15;;;;;;;4.55;1.73;;;19.30;67.70;;;;;;5000369;28;20454;-50
2023/10/09 04:22:50;;;;;;;2.30;2.00;;;19.20;67.60;;;;;;4994371;28;20101;-51
2023/10/09 04:25:26;;;;;;;1.83;1.73;;;19.30;67.60;;;;;;5000213;28;20034;-51
2023/10/09 04:28:09;;;;;;;2.45;2.00;;;19.30;67.60;;;;;;5004060;28;20034;-49
2023/10/09 04:30:46;;;;;;;2.92;2.03;;;19.30;67.50;;;;;;5001583;28;20034;-53
2023/10/09 04:33:28;;;;;;;3.55;2.13;;;19.30;67.70;;;;;;5001203;28;20042;-51
2023/10/09 04:36:26;;;;;;;4.05;1.77;;;19.30;67.70;;;;;;4999643;28;20057;-47
2023/10/09 04:39:37;;;;;;;6.00;2.25;;;19.30;67.80;;;;;;4999180;28;20038;-48
2023/10/09 04:44:19;;;;;;;4.88;2.55;;;19.30;68.50;;;;;;4997711;28;20018;-53
2023/10/09 04:49:49;;;;;;;7.00;2.00;;;19.30;67.80;;;;;;4999416;28;20058;-50
2023/10/09 04:57:45;;;;;;;5.30;2.00;;;19.30;67.70;;;;;;4999531;28;20034;-48
2023/10/09 05:00:35;;;;;;;2.50;1.83;;;19.30;67.60;;;;;;5000691;28;20253;-48
2023/10/09 05:03:12;;;;;;;14.60;2.65;;;19.30;67.60;;;;;;5002584;28;20115;-50
2023/10/09 05:08:19;;;;;;;9.90;2.15;;;19.30;67.50;;;;;;4994874;28;20649;-55
2023/10/09 05:11:15;;;;;;;4.32;2.53;;;19.40;67.60;;;;;;4998787;28;20041;-51
2023/10/09 05:16:18;;;;;;;4.88;2.28;;;19.30;67.60;;;;;;5001980;28;20038;-51
2023/10/09 05:18:57;;;;;;;4.43;2.05;;;19.30;67.50;;;;;;4999971;28;20085;-48
2023/10/09 05:27:17;;;;;;;2.83;1.98;;;19.30;67.50;;;;;;4998964;28;20034;-51
2023/10/09 05:29:48;;;;;;;2.78;1.80;;;19.30;67.50;;;;;;4998941;28;20029;-50
2023/10/09 05:37:32;;;;;;;5.05;2.33;;;19.30;67.50;;;;;;4995522;28;20582;-51
2023/10/09 05:42:42;;;;;;;5.22;2.00;;;19.30;67.50;;;;;;4996810;28;20029;-50
2023/10/09 05:53:17;;;;;;;4.50;2.15;;;19.30;67.60;;;;;;4995992;28;20655;-54
2023/10/09 05:57:00;;;;;;;3.20;1.80;;;19.30;67.50;;;;;;4999478;28;20042;-53
2023/10/09 06:04:17;;;;;;;;;;;19.30;67.50;;;;;;4999043;28;20095;-46
2023/10/09 06:06:44;;;;;;;2.35;1.90;;;19.30;67.40;;;;;;4998887;28;19917;-51
2023/10/09 06:11:49;;;;;;;4.55;2.17;;;19.30;67.50;;;;;;4996467;28;20621;-53
2023/10/09 06:14:25;;;;;;;14.98;3.03;;;19.30;67.70;;;;;;4998156;28;20057;-51
2023/10/09 06:19:26;;;;;;;4.80;2.20;;;19.30;67.90;;;;;;4999377;28;20279;-51
2023/10/09 06:24:41;;;;;;;10.73;2.58;;;19.40;67.90;;;;;;4996561;28;20028;-50
2023/10/09 06:29:50;;;;;;;6.85;2.90;;;19.30;67.90;;;;;;4998749;28;20049;-55
2023/10/09 06:34:56;;;;;;;11.40;3.30;;;19.40;67.40;;;;;;4997167;28;20033;-53
2023/10/09 06:47:53;;;;;;;6.32;3.00;;;19.20;67.20;;;;;;4995401;28;20025;-51
2023/10/09 06:52:57;;;;;;;5.57;3.20;;;19.20;67.30;;;;;;5001357;28;20026;-49
2023/10/09 06:55:48;;;;;;;5.97;2.88;;;19.10;67.30;;;;;;5000496;28;20030;-48
2023/10/09 06:58:23;;;;;;;5.68;2.95;;;19.10;67.20;;;;;;5002956;28;20080;-47
2023/10/09 07:03:36;;;;;;;3.95;2.50;;;19.10;67.20;;;;;;4997400;28;20049;-48
2023/10/09 07:06:09;;;;;;;4.97;2.80;;;19.10;67.40;;;;;;5002057;28;20037;-46
2023/10/09 07:08:53;;;;;;;3.30;2.70;;;19.10;67.40;;;;;;4997447;28;20121;-47
2023/10/09 07:14:07;;;;;;;5.47;3.33;;;19.10;67.20;;;;;;5000307;28;20030;-48
2023/10/09 07:16:38;;;;;;;6.70;2.65;;;19.10;67.20;;;;;;4998996;28;20104;-47
2023/10/09 07:19:20;;;;;;;5.65;2.92;;;19.10;67.20;;;;;;5000707;28;20308;-49
2023/10/09 07:21:53;;;;;;;5.55;3.42;;;19.10;67.30;;;;;;4998289;28;20034;-50
2023/10/09 07:24:24;;;;;;;5.50;3.08;;;19.10;67.30;;;;;;5001066;28;20026;-49
2023/10/09 07:26:53;;;;;;;4.97;2.97;;;19.00;67.30;;;;;;4999997;28;20519;-46
2023/10/09 07:29:23;;;;;;;5.50;3.85;;;19.10;67.40;;;;;;5002799;28;20049;-46
2023/10/09 07:31:57;;;;;;;4.30;3.15;;;19.00;67.30;;;;;;5016149;28;20153;-48
2023/10/09 07:34:52;;;;;;;6.35;3.85;;;19.00;67.40;;;;;;4994077;28;20093;-47
2023/10/09 07:37:22;;;;;;;10.05;5.68;;;19.00;67.30;;;;;;4998062;28;20037;-46
2023/10/09 07:39:58;;;;;;;6.40;4.80;;;19.00;67.50;;;;;;4996150;28;20026;-47
2023/10/09 07:42:43;;;;;;;7.03;4.90;;;19.00;67.50;;;;;;4998749;28;20084;-46
2023/10/09 07:46:29;;;;;;;7.20;4.63;;;19.00;67.50;;;;;;4989576;28;20045;-47
2023/10/09 07:48:02;;;;;;;8.40;5.20;;;19.00;67.70;;;;;;4997355;28;20580;-47
2023/10/09 07:53:17;;;;;;;10.43;5.75;;;19.00;67.70;;;;;;4997810;28;20472;-48
2023/10/09 07:56:06;;;;;;;13.63;6.40;;;19.00;67.60;;;;;;4999196;28;20624;-49
2023/10/09 07:58:33;;;;;;;9.07;5.45;;;19.00;67.50;;;;;;4999152;28;20057;-50
2023/10/09 08:01:08;;;;;;;11.00;6.10;;;19.00;67.60;;;;;;5000016;28;20573;-50
2023/10/09 08:03:37;;;;;;;10.15;6.35;;;19.00;67.80;;;;;;4997779;28;20033;-49
2023/10/09 08:14:42;;;;;;;10.85;6.38;;;18.90;67.90;;;;;;4997330;28;21004;-49
2023/10/09 08:17:17;;;;;;;9.38;6.35;;;19.00;68.00;;;;;;4995247;28;20458;-47
2023/10/09 08:19:53;;;;;;;13.13;6.70;;;19.00;68.10;;;;;;4997118;28;20446;-48
2023/10/09 08:24:56;;;;;;;10.63;5.78;;;18.90;68.20;;;;;;4997628;28;20037;-47
2023/10/09 08:35:47;;;;;;;10.30;5.38;;;18.90;67.90;;;;;;4997466;28;20695;-48
2023/10/09 08:38:17;;;;;;;11.10;5.47;;;19.00;68.10;;;;;;4996484;28;20048;-46
2023/10/09 08:40:45;;;;;;;7.95;5.10;;;19.00;68.10;;;;;;4996760;28;20297;-47
2023/10/09 08:43:19;;;;;;;8.48;5.25;;;19.00;68.00;;;;;;4998160;28;20034;-47
2023/10/09 08:45:48;;;;;;;8.73;5.68;;;19.00;68.00;;;;;;4999024;28;20030;-47
2023/10/09 08:48:18;;;;;;;9.05;5.65;;;19.00;67.90;;;;;;5000225;28;20046;-47
2023/10/09 08:50:49;;;;;;;10.77;5.60;;;19.00;67.90;;;;;;4997354;28;20045;-46
2023/10/09 08:53:16;;;;;;;7.97;5.80;;;19.00;67.90;;;;;;4997402;28;20216;-51
2023/10/09 08:55:43;;;;;;;7.40;4.72;;;19.00;68.00;;;;;;5000918;28;20046;-49
2023/10/09 08:58:30;;;;;;;6.90;4.30;;;19.00;67.90;;;;;;4999008;28;20646;-48
2023/10/09 09:00:58;;;;;;;7.65;4.82;;;19.00;68.00;;;;;;4995612;28;20056;-50
2023/10/09 09:03:25;;;;;;;8.30;4.43;;;18.90;67.80;;;;;;4996505;28;20472;-50
2023/10/09 09:06:03;;;;;;;6.22;4.63;;;19.00;67.80;;;;;;5013418;28;20484;-49
2023/10/09 09:08:30;;;;;;;7.03;4.50;;;19.00;68.00;;;;;;4995710;28;20034;-49
2023/10/09 09:11:22;;;;;;;7.60;4.97;;;19.00;68.10;;;;;;4998307;28;20073;-47
2023/10/09 09:13:52;;;;;;;6.90;4.82;;;18.90;67.80;;;;;;4998112;28;20030;-53
2023/10/09 09:16:29;;;;;;;8.30;4.95;;;18.90;67.80;;;;;;4997625;28;20026;-48
2023/10/09 09:19:17;;;;;;;6.35;4.68;;;18.90;67.80;;;;;;4995036;28;20042;-49
2023/10/09 09:21:54;;;;;;;8.63;4.25;;;18.90;67.70;;;;;;4995940;28;20446;-46
2023/10/09 09:26:58;;;;;;;7.05;4.68;;;19.00;67.90;;;;;;4998840;28;20506;-49
2023/10/09 09:29:37;;;;;;;6.70;4.50;;;19.00;67.80;;;;;;4994338;28;20038;-48
2023/10/09 09:32:17;;;;;;;7.18;4.10;;;18.90;67.90;;;;;;4994517;28;20095;-48
2023/10/09 09:34:54;;;;;;;7.57;4.60;;;18.90;67.90;;;;;;4994116;28;20387;-47
2023/10/09 09:37:31;;;;;;;7.75;4.20;;;19.00;67.90;;;;;;4997415;28;20041;-48
2023/10/09 09:40:01;;;;;;;5.47;4.50;;;19.00;67.70;;;;;;4996094;28;20137;-48
2023/10/09 09:42:28;;;;;;;6.03;4.53;;;19.00;67.80;;;;;;4993818;28;20032;-48
2023/10/09 09:44:58;;;;;;;7.53;4.72;;;19.00;68.00;;;;;;4991016;28;20173;-49
2023/10/09 09:47:25;;;;;;;6.03;4.18;;;19.00;68.00;;;;;;5000397;28;20041;-48
2023/10/09 09:49:52;;;;;;;4.43;3.58;;;19.00;68.00;;;;;;5054968;22;20577;-63
2023/10/09 09:52:18;;;;;;;9.20;4.55;;;19.00;67.80;;;;;;5033245;28;20123;-62
2023/10/09 09:54:44;;;;;;;5.57;3.65;;;19.00;68.00;;;;;;5051513;28;20558;-63
2023/10/09 09:57:22;;;;;;;6.63;4.20;;;19.00;68.10;;;;;;5048173;28;20040;-63
2023/10/09 09:59:52;;;;;;;5.95;4.10;;;18.90;68.20;;;;;;5047669;28;20106;-63
2023/10/09 10:02:24;;;;;;;5.93;3.75;;;19.00;68.00;;;;;;5046525;28;20029;-63
2023/10/09 10:04:56;;;;;;;5.43;3.65;;;19.00;68.40;;;;;;5047940;28;20025;-63
2023/10/09 10:07:23;;;;;;;5.40;3.85;;;19.00;68.00;;;;;;5048293;28;20108;-63
2023/10/09 10:09:54;;;;;;;6.78;4.20;;;19.00;67.90;;;;;;5047697;28;20484;-63
2023/10/09 10:12:48;;;;;;;5.72;3.88;;;19.00;68.40;;;;;;5050574;28;20132;-63
2023/10/09 10:15:16;;;;;;;4.80;3.58;;;19.00;68.10;;;;;;5050376;28;20086;-63
2023/10/09 10:17:58;;;;;;;5.70;3.80;;;19.00;68.00;;;;;;5048488;28;20409;-62
2023/10/09 10:23:09;;;;;;;6.15;4.32;;;19.00;68.00;;;;;;5049964;28;20029;-62
2023/10/09 10:25:35;;;;;;;4.90;3.80;;;19.00;68.00;;;;;;5031332;28;20056;-63
2023/10/09 10:28:28;;;;;;;5.85;4.00;;;19.00;68.10;;;;;;5049077;28;20032;-64
2023/10/09 10:30:55;;;;;;;5.30;3.42;;;19.00;68.00;;;;;;5036906;28;20453;-63
2023/10/09 10:33:22;;;;;;;7.10;4.03;;;19.00;68.00;;;;;;5034178;28;20072;-63
2023/10/09 10:38:39;;;;;;;7.75;5.18;;;19.00;68.20;;;;;;5047566;28;20047;-62
2023/10/09 10:41:19;;;;;;;6.25;4.30;;;19.00;68.40;;;;;;5025528;28;20514;-63
2023/10/09 10:46:15;;;;;;;5.97;4.40;;;19.00;68.60;;;;;;5048809;28;20064;-62
2023/10/09 10:48:46;;;;;;;8.45;3.88;;;19.00;68.60;;;;;;5046652;28;20037;-63
2023/10/09 10:51:15;;;;;;;8.45;4.40;;;18.90;68.30;;;;;;5034340;28;20037;-64
2023/10/09 10:53:57;;;;;;;7.07;4.25;;;19.00;68.50;;;;;;5038270;28;20036;-62
2023/10/09 10:56:35;;;;;;;5.53;3.53;;;19.00;68.50;;;;;;5046221;28;20040;-64
2023/10/09 11:04:24;;;;;;;6.78;3.97;;;19.00;68.40;;;;;;5049882;28;20039;-65
2023/10/09 11:12:42;;;;;;;5.65;3.55;;;18.90;68.60;;;;;;5042512;28;20398;-64
2023/10/09 11:15:29;;;;;;;6.63;4.38;;;19.00;68.90;;;;;;5040594;28;20526;-64
2023/10/09 11:18:08;;;;;;;8.80;5.50;;;19.00;68.90;;;;;;5047401;28;20078;-64
2023/10/09 11:20:35;;;;;;;6.80;4.20;;;18.90;68.80;;;;;;5051736;28;20033;-62
2023/10/09 11:25:38;;;;;;;;;;;18.90;68.90;;;;;;5038128;28;20048;-61
2023/10/09 11:28:27;;;;;;;6.00;4.28;;;18.90;69.00;;;;;;5031193;28;19909;-63
2023/10/09 11:30:55;;;;;;;6.30;4.30;;;18.90;68.90;;;;;;5048617;28;20025;-62
2023/10/09 11:33:21;;;;;;;7.18;4.88;;;18.90;68.90;;;;;;5047958;28;20029;-62
2023/10/09 11:35:57;;;;;;;8.73;5.00;;;18.90;68.90;;;;;;5030189;28;20060;-63
2023/10/09 11:38:23;;;;;;;;;;;18.90;68.90;;;;;;5040138;28;20037;-63
2023/10/09 11:41:06;;;;;;;9.23;4.70;;;18.90;68.80;;;;;;5045639;28;19923;-63
2023/10/09 11:43:51;;;;;;;9.73;5.00;;;18.90;68.50;;;;;;5046499;28;20243;-64
2023/10/09 11:49:44;;;;;;;9.00;6.32;;;18.90;68.90;;;;;;4949784;28;20050;-64
2023/10/09 11:54:38;;;;;;;9.63;5.65;;;18.90;68.80;;;;;;5008797;28;20116;-63
2023/10/09 11:57:04;;;;;;;6.75;4.85;;;18.90;68.50;;;;;;5047398;28;20120;-64
2023/10/09 11:59:37;;;;;;;8.13;5.43;;;18.90;68.60;;;;;;5050095;28;20025;-65
2023/10/09 12:02:04;;;;;;;11.23;6.10;;;18.90;69.10;;;;;;5038494;28;20016;-64
2023/10/09 12:04:30;;;;;;;13.25;7.07;;;18.90;68.90;;;;;;5048270;28;20104;-64
2023/10/09 12:07:06;;;;;;;12.23;6.93;;;18.90;69.10;;;;;;5051107;28;20108;-64
2023/10/09 12:09:35;;;;;;;14.52;8.75;;;18.90;69.30;;;;;;5043173;28;20492;-64
2023/10/09 12:12:05;;;;;;;14.38;7.40;;;18.90;69.20;;;;;;5050373;28;20025;-64
2023/10/09 12:14:33;;;;;;;18.77;8.60;;;18.90;68.70;;;;;;5050095;28;20024;-64
2023/10/09 12:17:05;;;;;;;13.57;8.00;;;18.90;69.20;;;;;;5050009;28;20032;-65
2023/10/09 12:19:32;;;;;;;14.93;8.23;;;18.90;68.90;;;;;;5032740;28;20124;-65
2023/10/09 12:22:00;;;;;;;15.27;8.27;;;18.90;69.00;;;;;;5052443;28;20031;-64
2023/10/09 12:24:26;;;;;;;16.27;8.38;;;18.90;69.20;;;;;;5048399;28;20630;-64
2023/10/09 12:26:53;;;;;;;16.25;8.23;;;18.90;68.90;;;;;;5039665;28;20057;-65
2023/10/09 12:29:19;;;;;;;14.10;8.35;;;18.90;69.00;;;;;;5051033;28;20033;-65
2023/10/09 12:31:45;;;;;;;13.90;7.93;;;18.90;69.40;;;;;;5052453;28;20437;-63
2023/10/09 12:34:15;;;;;;;12.88;7.88;;;18.90;69.10;;;;;;5052218;28;20032;-64
2023/10/09 12:36:43;;;;;;;13.93;7.88;;;18.90;68.90;;;;;;5056139;28;20040;-65
2023/10/09 12:39:17;;;;;;;13.82;7.82;;;18.90;69.10;;;;;;5046517;28;20036;-64
2023/10/09 12:41:43;;;;;;;23.40;12.40;;;18.80;69.00;;;;;;5027579;28;20033;-64
2023/10/09 12:44:14;;;;;;;22.80;11.70;;;18.90;71.20;;;;;;5032285;28;20547;-65
2023/10/09 12:46:41;;;;;;;17.50;9.95;;;19.10;71.40;;;;;;5026419;28;20116;-62
2023/10/09 12:49:07;;;;;;;19.40;10.02;;;19.10;71.00;;;;;;5043556;28;20518;-63
2023/10/09 12:51:32;;;;;;;21.33;10.50;;;19.00;70.30;;;;;;5019374;28;20590;-63
2023/10/09 12:54:01;;;;;;;15.55;8.95;;;19.00;69.90;;;;;;5051107;28;20046;-63
2023/10/09 12:56:33;;;;;;;15.48;9.50;;;19.00;70.00;;;;;;5048275;28;20033;-63
2023/10/09 12:59:04;;;;;;;15.68;8.30;;;19.00;69.60;;;;;;5042880;28;20036;-64
2023/10/09 13:01:43;;;;;;;17.55;9.15;;;19.00;69.40;;;;;;5049251;28;20583;-64
2023/10/09 13:04:11;;;;;;;16.77;8.60;;;18.90;70.00;;;;;;5045173;28;20033;-63
2023/10/09 13:06:43;;;;;;;15.50;8.00;;;18.80;70.00;;;;;;5039967;28;20037;-65
2023/10/09 13:09:17;;;;;;;16.23;8.40;;;18.80;69.60;;;;;;5035928;28;20565;-64
2023/10/09 13:11:43;;;;;;;12.88;8.15;;;18.80;69.70;;;;;;5046601;28;20033;-63
2023/10/09 13:14:16;;;;;;;21.48;11.50;;;18.90;70.00;;;;;;5050626;28;20048;-64
2023/10/09 13:16:42;;;;;;;26.42;11.40;;;19.00;73.40;;;;;;5045949;28;20033;-64
2023/10/09 13:19:11;;;;;;;30.15;10.90;;;19.10;72.60;;;;;;5051960;28;20101;-63
2023/10/09 13:21:39;;;;;;;25.65;11.65;;;19.20;72.90;;;;;;5049681;28;20135;-64
2023/10/09 13:24:12;;;;;;;23.33;10.80;;;19.30;72.30;;;;;;5051749;28;20087;-63
2023/10/09 13:26:38;;;;;;;28.90;11.80;;;19.30;72.40;;;;;;5046506;28;20042;-64
2023/10/09 13:29:08;;;;;;;24.63;10.73;;;19.30;72.40;;;;;;5034207;28;20040;-64
2023/10/09 13:31:37;;;;;;;22.38;9.88;;;19.40;71.90;;;;;;5048195;28;20116;-64
2023/10/09 13:34:06;;;;;;;20.77;10.18;;;19.40;72.70;;;;;;5033629;28;20499;-64
2023/10/09 13:36:33;;;;;;;19.45;9.18;;;19.40;72.60;;;;;;5053022;28;20115;-64
2023/10/09 13:39:25;;;;;;;20.40;8.80;;;19.40;72.20;;;;;;5048638;28;20036;-65
2023/10/09 13:41:58;;;;;;;19.65;9.10;;;19.40;72.30;;;;;;5027135;28;20156;-65
2023/10/09 13:44:31;;;;;;;18.60;9.55;;;19.40;72.20;;;;;;5045331;28;20029;-64
2023/10/09 13:46:59;;;;;;;18.40;9.13;;;19.50;72.10;;;;;;5051057;28;20037;-64
2023/10/09 13:49:29;;;;;;;16.50;9.52;;;19.50;72.30;;;;;;5032766;28;20040;-64
2023/10/09 13:51:58;;;;;;;18.23;8.00;;;19.50;72.10;;;;;;5055112;28;20033;-64
2023/10/09 13:56:55;;;;;;;16.95;8.30;;;19.50;72.10;;;;;;5048332;28;20029;-64
2023/10/09 13:59:26;;;;;;;14.55;7.55;;;19.50;72.20;;;;;;5048490;28;20063;-65
2023/10/09 14:01:56;;;;;;;17.55;7.80;;;19.50;71.80;;;;;;5045817;28;20110;-64
2023/10/09 14:04:23;;;;;;;15.60;7.97;;;19.60;72.70;;;;;;5040790;28;20204;-64
2023/10/09 14:06:49;;;;;;;14.85;8.10;;;19.60;73.10;;;;;;5053353;28;20029;-64
2023/10/09 14:12:07;;;;;;;16.77;8.82;;;19.60;73.30;;;;;;5021946;28;20040;-64
2023/10/09 14:14:48;;;;;;;15.30;7.28;;;19.60;73.70;;;;;;5021226;28;20048;-65
2023/10/09 14:17:23;;;;;;;14.77;7.32;;;19.70;73.30;;;;;;4994581;28;20036;-64
2023/10/09 14:19:50;;;;;;;14.43;6.67;;;19.60;73.30;;;;;;5008507;28;20116;-64
2023/10/09 14:22:21;;;;;;;9.82;6.03;;;19.60;73.70;;;;;;5011695;28;20527;-64
2023/10/09 14:24:55;;;;;;;13.40;6.90;;;19.60;73.30;;;;;;5008964;28;20040;-64
2023/10/09 14:27:23;;;;;;;12.93;7.22;;;19.50;72.70;;;;;;5011164;28;20579;-64
2023/10/09 14:29:49;;;;;;;9.77;5.82;;;19.50;72.40;;;;;;5011077;28;20508;-64
2023/10/09 14:32:15;;;;;;;10.10;5.90;;;19.40;72.00;;;;;;5008290;28;20041;-64
2023/10/09 14:34:46;;;;;;;8.57;5.45;;;19.40;72.10;;;;;;5009997;28;20026;-64
2023/10/09 14:37:12;;;;;;;7.30;5.20;;;19.30;71.70;;;;;;5008824;28;20037;-64
2023/10/09 14:39:39;;;;;;;10.18;5.53;;;19.30;71.50;;;;;;5013258;28;20076;-64
2023/10/09 14:42:11;;;;;;;11.45;5.72;;;19.30;71.40;;;;;;5010975;28;20038;-64
2023/10/09 14:44:38;;;;;;;9.38;5.97;;;19.30;71.50;;;;;;5013224;28;20112;-64
2023/10/09 14:47:05;;;;;;;8.77;4.80;;;19.30;71.30;;;;;;5006918;28;20026;-64
2023/10/09 14:49:36;;;;;;;10.15;5.55;;;19.30;71.20;;;;;;5005687;28;20038;-65
2023/10/09 14:52:08;;;;;;;7.22;5.15;;;19.30;71.20;;;;;;5014054;28;20083;-65
2023/10/09 14:54:35;;;;;;;7.72;4.43;;;19.20;70.90;;;;;;5012624;28;20487;-64
2023/10/09 14:57:00;;;;;;;9.15;5.63;;;19.20;70.90;;;;;;5010402;28;20109;-64
2023/10/09 14:59:26;;;;;;;6.18;4.28;;;19.20;70.90;;;;;;5014342;28;20025;-63
2023/10/09 15:01:53;;;;;;;11.00;4.82;;;19.20;70.80;;;;;;5014701;28;20080;-63
2023/10/09 15:04:19;;;;;;;9.00;5.20;;;19.20;70.80;;;;;;5005686;28;20026;-66
2023/10/09 15:06:49;;;;;;;8.55;5.05;;;19.20;70.60;;;;;;5014537;28;20026;-64
2023/10/09 15:09:28;;;;;;;9.93;4.75;;;19.20;70.60;;;;;;5013601;28;20026;-64
2023/10/09 15:11:54;;;;;;;6.13;4.20;;;19.20;70.70;;;;;;5001002;28;20036;-64
2023/10/09 15:14:20;;;;;;;7.88;4.07;;;19.10;70.30;;;;;;5018756;28;20038;-64
2023/10/09 15:16:50;;;;;;;7.30;4.35;;;19.10;70.60;;;;;;5020321;28;20026;-64
2023/10/09 15:19:16;;;;;;;9.13;4.72;;;19.10;70.50;;;;;;5000769;28;20037;-64
2023/10/09 15:21:46;;;;;;;6.45;4.68;;;19.10;70.50;;;;;;5020856;28;20444;-64
2023/10/09 15:24:16;;;;;;;8.93;5.72;;;19.10;70.30;;;;;;5016607;28;20080;-65
2023/10/09 15:26:42;;;;;;;6.70;4.32;;;19.10;70.50;;;;;;5022846;28;20769;-64
2023/10/09 15:29:09;;;;;;;6.88;4.85;;;19.10;70.20;;;;;;5016839;28;20037;-64
2023/10/09 15:31:35;;;;;;;5.97;4.05;;;19.10;70.30;;;;;;4123188;28;10000984;-65
2023/10/09 15:34:02;;;;;;;7.03;4.00;;;19.10;70.40;;;;;;5022436;28;20389;-64
2023/10/09 15:36:30;;;;;;;6.15;3.80;;;19.10;70.30;;;;;;5016531;28;20034;-64
2023/10/09 15:38:59;;;;;;;6.80;4.47;;;19.10;70.20;;;;;;5019435;28;20528;-65